Time;durP1;ratioP1;P1;durP2;ratioP2;P2;SDS_P1;SDS_P2;PMS_P1;PMS_P2;Temp;Humidity;BMP_temperature;BMP_pressure;BME280_temperature;BME280_humidity;BME280_pressure;Samples;Min_cycle;Max_cycle;Signal;HPM_P1;HPM_P2
2023/03/21 00:00:22;;;;;;;5.00;2.17;;;9.10;99.90;;;;;;6239731;23;20164;-84
2023/03/21 00:02:48;;;;;;;3.27;2.43;;;9.10;99.90;;;;;;6214154;23;20800;-83
2023/03/21 00:05:13;;;;;;;7.63;3.23;;;9.10;99.90;;;;;;6238867;23;20148;-83
2023/03/21 00:07:39;;;;;;;8.37;2.90;;;9.10;99.90;;;;;;6239967;23;20195;-83
2023/03/21 00:10:05;;;;;;;7.73;2.70;;;9.10;99.90;;;;;;6238918;23;20275;-82
2023/03/21 00:12:31;;;;;;;3.05;2.17;;;9.20;99.90;;;;;;6236086;23;20141;-83
2023/03/21 00:15:04;;;;;;;2.30;2.10;;;9.10;99.90;;;;;;6211078;23;20176;-84
2023/03/21 00:17:31;;;;;;;11.27;2.85;;;9.10;99.90;;;;;;6241617;23;20135;-84
2023/03/21 00:20:03;;;;;;;5.68;2.85;;;9.00;99.90;;;;;;6207881;23;20181;-83
2023/03/21 00:22:29;;;;;;;5.53;3.10;;;9.00;99.90;;;;;;6212826;23;20191;-83
2023/03/21 00:24:54;;;;;;;8.73;2.93;;;8.90;99.90;;;;;;6213980;23;20164;-83
2023/03/21 00:27:20;;;;;;;7.73;2.40;;;9.00;99.90;;;;;;6238763;23;20149;-83
2023/03/21 00:29:48;;;;;;;8.00;2.30;;;8.90;99.90;;;;;;6213067;23;20283;-84
2023/03/21 00:32:16;;;;;;;5.30;2.40;;;8.90;99.90;;;;;;6241958;23;20132;-83
2023/03/21 00:34:43;;;;;;;5.45;2.65;;;8.90;99.90;;;;;;6213520;23;20171;-83
2023/03/21 00:37:10;;;;;;;6.22;2.60;;;8.90;99.90;;;;;;6237681;23;20149;-83
2023/03/21 00:39:36;;;;;;;3.72;2.30;;;8.90;99.90;;;;;;6211667;23;20240;-83
2023/03/21 00:42:01;;;;;;;5.50;2.20;;;8.90;99.90;;;;;;6239947;23;20193;-84
2023/03/21 00:44:27;;;;;;;5.87;2.43;;;8.90;99.90;;;;;;6235757;23;20190;-83
2023/03/21 00:46:52;;;;;;;5.37;3.00;;;9.00;99.90;;;;;;6224039;23;20148;-82
2023/03/21 00:49:21;;;;;;;4.57;2.37;;;9.00;99.90;;;;;;6221121;23;20172;-82
2023/03/21 00:51:50;;;;;;;5.90;2.60;;;8.90;99.90;;;;;;6219282;23;20164;-83
2023/03/21 00:54:16;;;;;;;8.98;2.85;;;8.90;99.90;;;;;;6239581;23;20246;-83
2023/03/21 00:56:42;;;;;;;3.55;2.58;;;8.90;99.90;;;;;;6215852;23;20254;-83
2023/03/21 00:59:07;;;;;;;9.10;3.27;;;8.90;99.90;;;;;;6215386;23;20176;-83
2023/03/21 01:01:33;;;;;;;3.40;2.57;;;8.90;99.90;;;;;;6210591;23;20159;-83
2023/03/21 01:04:04;;;;;;;3.97;2.43;;;9.00;99.90;;;;;;6214510;23;20195;-83
2023/03/21 01:06:31;;;;;;;5.40;2.60;;;8.90;99.90;;;;;;6240327;23;20132;-83
2023/03/21 01:08:57;;;;;;;4.40;2.80;;;8.90;99.90;;;;;;6212443;23;20187;-83
2023/03/21 01:11:25;;;;;;;3.33;3.03;;;8.90;99.90;;;;;;6212147;23;20156;-84
2023/03/21 01:13:51;;;;;;;3.08;2.78;;;9.00;99.90;;;;;;6241983;23;20148;-83
2023/03/21 01:16:17;;;;;;;4.75;3.03;;;9.10;99.90;;;;;;6240603;23;20183;-83
2023/03/21 01:18:42;;;;;;;3.40;2.47;;;9.10;99.90;;;;;;6232270;23;20237;-83
2023/03/21 01:21:11;;;;;;;6.60;2.83;;;9.00;99.90;;;;;;6211101;23;20664;-83
2023/03/21 01:23:37;;;;;;;10.27;3.75;;;9.00;99.90;;;;;;6241958;23;20250;-83
2023/03/21 01:26:03;;;;;;;3.47;3.17;;;9.00;99.90;;;;;;6240051;23;20231;-84
2023/03/21 01:28:29;;;;;;;6.47;3.67;;;8.90;99.90;;;;;;6234982;23;20180;-84
2023/03/21 01:30:55;;;;;;;5.00;3.65;;;8.90;99.90;;;;;;6215035;23;20148;-83
2023/03/21 01:33:22;;;;;;;4.47;3.05;;;9.00;99.90;;;;;;6233336;23;20559;-84
2023/03/21 01:35:47;;;;;;;6.03;2.83;;;9.00;99.90;;;;;;6239923;23;20198;-84
2023/03/21 01:38:13;;;;;;;7.50;2.60;;;9.00;99.90;;;;;;6209066;23;20533;-84
2023/03/21 01:40:40;;;;;;;4.40;2.70;;;9.10;99.90;;;;;;6236205;23;20168;-84
2023/03/21 01:43:26;;;;;;;3.13;2.75;;;9.10;99.90;;;;;;6209242;23;20152;-83
2023/03/21 01:46:20;;;;;;;6.30;3.30;;;9.10;99.90;;;;;;6236693;23;20637;-84
2023/03/21 01:48:50;;;;;;;6.88;3.42;;;9.10;99.90;;;;;;6236104;23;20706;-83
2023/03/21 01:51:17;;;;;;;10.85;3.20;;;9.10;99.90;;;;;;6209473;23;20810;-81
2023/03/21 01:53:43;;;;;;;6.05;2.47;;;9.10;99.90;;;;;;6209958;23;20213;-83
2023/03/21 01:56:15;;;;;;;13.93;3.53;;;9.20;99.90;;;;;;6235893;23;20192;-84
2023/03/21 01:58:42;;;;;;;4.03;2.80;;;9.20;99.90;;;;;;6208457;23;20155;-84
2023/03/21 02:01:08;;;;;;;10.85;3.20;;;9.10;99.90;;;;;;6210056;23;20152;-83
2023/03/21 02:03:36;;;;;;;8.27;3.33;;;9.10;99.90;;;;;;6241523;23;20133;-84
2023/03/21 02:06:10;;;;;;;7.88;3.70;;;9.10;99.90;;;;;;6210419;23;20153;-83
2023/03/21 02:08:35;;;;;;;5.90;2.90;;;9.00;99.90;;;;;;6211119;23;20210;-83
2023/03/21 02:11:01;;;;;;;4.47;2.80;;;9.10;99.90;;;;;;6208169;23;20255;-85
2023/03/21 02:13:27;;;;;;;4.90;2.83;;;9.10;99.90;;;;;;6234467;23;20530;-85
2023/03/21 02:16:00;;;;;;;5.47;4.00;;;9.10;99.90;;;;;;6237689;23;20650;-82
2023/03/21 02:18:51;;;;;;;6.10;3.22;;;9.00;99.90;;;;;;6234856;23;20606;-83
2023/03/21 02:21:35;;;;;;;7.72;3.58;;;9.00;99.90;;;;;;6205899;23;20968;-82
2023/03/21 02:24:28;;;;;;;6.85;3.45;;;9.00;99.90;;;;;;6209076;23;20224;-84
2023/03/21 02:27:22;;;;;;;4.75;2.97;;;9.00;99.90;;;;;;6237682;23;20567;-82
2023/03/21 02:29:57;;;;;;;10.07;2.72;;;9.00;99.90;;;;;;6237588;23;20169;-83
2023/03/21 02:32:45;;;;;;;3.25;2.88;;;9.00;99.90;;;;;;6207097;23;20178;-83
2023/03/21 02:35:48;;;;;;;5.65;3.10;;;8.90;99.90;;;;;;6236038;23;20745;-85
2023/03/21 02:38:27;;;;;;;6.82;3.00;;;8.90;99.90;;;;;;6220375;23;20144;-82
2023/03/21 02:41:09;;;;;;;5.35;3.08;;;8.90;99.90;;;;;;6240616;23;20151;-83
2023/03/21 02:43:42;;;;;;;8.52;3.65;;;9.00;99.90;;;;;;6237927;23;20199;-83
2023/03/21 02:46:17;;;;;;;3.80;3.30;;;9.00;99.90;;;;;;6213252;23;20151;-81
2023/03/21 02:48:51;;;;;;;6.65;3.60;;;9.00;99.90;;;;;;6217774;23;20239;-85
2023/03/21 02:51:20;;;;;;;5.63;3.03;;;9.00;99.90;;;;;;6214708;23;20151;-82
2023/03/21 02:53:51;;;;;;;4.90;2.95;;;9.00;99.90;;;;;;6211694;23;20167;-83
2023/03/21 02:56:19;;;;;;;9.25;2.65;;;8.90;99.90;;;;;;6237781;23;20167;-83
2023/03/21 02:58:46;;;;;;;8.02;3.58;;;9.00;99.90;;;;;;6211520;23;20239;-85
2023/03/21 03:01:12;;;;;;;4.38;2.72;;;9.00;99.90;;;;;;6241255;23;20172;-82
2023/03/21 03:03:38;;;;;;;5.83;2.80;;;9.00;99.90;;;;;;6214441;23;20491;-84
2023/03/21 03:06:14;;;;;;;6.65;2.85;;;9.20;99.90;;;;;;6210240;23;20490;-84
2023/03/21 03:09:03;;;;;;;5.03;2.88;;;9.10;99.90;;;;;;6236908;23;20151;-83
2023/03/21 03:11:38;;;;;;;4.05;2.67;;;9.00;99.90;;;;;;6208403;23;20665;-83
2023/03/21 03:14:23;;;;;;;10.38;3.05;;;8.80;99.90;;;;;;6214445;23;20163;-83
2023/03/21 03:17:02;;;;;;;2.78;1.98;;;8.70;99.90;;;;;;6254626;23;20194;-82
2023/03/21 03:19:30;;;;;;;5.35;3.05;;;8.70;99.90;;;;;;6231862;23;20243;-82
2023/03/21 03:22:08;;;;;;;2.92;2.35;;;8.60;99.90;;;;;;6247892;23;20145;-83
2023/03/21 03:24:46;;;;;;;4.78;3.10;;;8.60;99.90;;;;;;6256817;23;20132;-82
2023/03/21 03:27:21;;;;;;;4.20;3.08;;;8.70;99.90;;;;;;6256998;23;20140;-84
2023/03/21 03:29:48;;;;;;;8.80;3.40;;;8.70;99.90;;;;;;6230926;23;20198;-83
2023/03/21 03:32:19;;;;;;;3.67;2.80;;;8.80;99.90;;;;;;6250730;23;1005536;-85
2023/03/21 03:34:50;;;;;;;6.05;3.30;;;8.80;99.90;;;;;;6232892;23;20427;-84
2023/03/21 03:37:20;;;;;;;6.57;2.88;;;8.80;99.90;;;;;;6260504;23;20133;-81
2023/03/21 03:39:52;;;;;;;4.20;3.75;;;8.90;99.90;;;;;;6230995;23;20219;-84
2023/03/21 03:42:27;;;;;;;7.00;3.28;;;8.80;99.90;;;;;;6258100;23;20452;-81
2023/03/21 03:44:53;;;;;;;5.70;3.38;;;8.80;99.90;;;;;;6227077;23;20155;-82
2023/03/21 03:47:36;;;;;;;6.40;3.20;;;8.90;99.90;;;;;;6258529;23;20170;-82
2023/03/21 03:50:20;;;;;;;5.47;3.33;;;8.80;99.90;;;;;;6250306;23;20398;-83
2023/03/21 03:52:51;;;;;;;9.60;4.38;;;8.70;99.90;;;;;;6216533;23;20179;-82
2023/03/21 03:55:20;;;;;;;13.23;3.65;;;8.70;99.90;;;;;;6253856;23;20220;-82
2023/03/21 03:57:46;;;;;;;6.80;3.75;;;8.70;99.90;;;;;;6228497;23;20149;-82
2023/03/21 04:00:14;;;;;;;6.40;3.90;;;8.60;99.90;;;;;;6211758;23;20173;-83
2023/03/21 04:02:40;;;;;;;3.80;3.40;;;8.60;99.90;;;;;;6236733;23;20622;-83
2023/03/21 04:05:06;;;;;;;6.53;3.90;;;8.60;99.90;;;;;;6210173;23;20149;-83
2023/03/21 04:07:31;;;;;;;8.40;3.60;;;8.60;99.90;;;;;;6212628;23;20160;-83
2023/03/21 04:09:57;;;;;;;9.23;4.03;;;8.60;99.90;;;;;;6215103;23;20488;-83
2023/03/21 04:12:23;;;;;;;8.13;3.67;;;8.60;99.90;;;;;;6240502;23;20783;-83
2023/03/21 04:14:49;;;;;;;6.13;3.87;;;8.60;99.90;;;;;;6235637;23;20157;-84
2023/03/21 04:17:15;;;;;;;7.17;3.70;;;8.60;99.90;;;;;;6237813;23;20375;-83
2023/03/21 04:19:41;;;;;;;8.40;4.13;;;8.60;99.90;;;;;;6210877;23;20814;-83
2023/03/21 04:22:07;;;;;;;5.75;4.00;;;8.60;99.90;;;;;;6238724;23;20218;-83
2023/03/21 04:24:32;;;;;;;7.40;3.70;;;8.60;99.90;;;;;;6208358;23;20181;-83
2023/03/21 04:26:58;;;;;;;7.20;4.00;;;8.60;99.90;;;;;;6235099;23;20203;-83
2023/03/21 04:29:24;;;;;;;5.05;3.78;;;8.60;99.90;;;;;;6239994;23;20235;-82
2023/03/21 04:31:50;;;;;;;4.70;3.37;;;8.70;99.90;;;;;;6242260;23;20148;-83
2023/03/21 04:34:15;;;;;;;7.53;3.90;;;8.70;99.90;;;;;;6248680;23;20163;-83
2023/03/21 04:36:45;;;;;;;9.60;3.43;;;8.70;99.90;;;;;;6241973;23;20172;-83
2023/03/21 04:39:11;;;;;;;7.82;3.33;;;8.80;99.90;;;;;;6241939;23;20396;-84
2023/03/21 04:41:42;;;;;;;10.35;3.25;;;8.90;99.90;;;;;;6244650;23;20579;-84
2023/03/21 04:44:08;;;;;;;5.57;3.00;;;9.00;99.90;;;;;;6241792;23;20216;-83
2023/03/21 04:46:34;;;;;;;12.27;4.13;;;9.00;99.90;;;;;;6208948;23;20152;-83
2023/03/21 04:49:00;;;;;;;6.82;3.30;;;9.10;99.90;;;;;;6238591;23;20196;-84
2023/03/21 04:51:25;;;;;;;8.27;3.77;;;9.10;99.90;;;;;;6211083;23;20156;-83
2023/03/21 04:53:51;;;;;;;8.50;3.63;;;9.20;99.90;;;;;;6234667;23;20607;-83
2023/03/21 04:56:17;;;;;;;7.33;2.60;;;9.30;99.90;;;;;;6236146;23;20169;-83
2023/03/21 04:58:44;;;;;;;10.60;4.45;;;9.30;99.90;;;;;;6237053;23;20141;-84
2023/03/21 05:01:09;;;;;;;6.15;3.80;;;9.20;99.90;;;;;;6208996;23;20621;-83
2023/03/21 05:03:38;;;;;;;3.90;3.37;;;9.30;99.90;;;;;;6238049;23;20152;-83
2023/03/21 05:06:08;;;;;;;4.22;3.20;;;9.40;99.90;;;;;;6207433;23;20152;-83
2023/03/21 05:08:34;;;;;;;6.00;3.22;;;9.40;99.90;;;;;;6240201;23;20224;-83
2023/03/21 05:11:01;;;;;;;10.40;3.80;;;9.40;99.90;;;;;;6236097;23;20850;-82
2023/03/21 05:13:27;;;;;;;5.15;3.28;;;9.40;99.90;;;;;;6209014;23;20160;-83
2023/03/21 05:15:52;;;;;;;5.87;3.10;;;9.30;99.90;;;;;;6211263;23;20586;-84
2023/03/21 05:18:23;;;;;;;5.17;3.43;;;9.30;99.90;;;;;;6210933;23;20176;-83
2023/03/21 05:20:53;;;;;;;3.85;2.90;;;9.30;99.90;;;;;;6214334;23;20172;-83
2023/03/21 05:23:22;;;;;;;12.68;2.90;;;9.30;99.90;;;;;;6236101;23;20152;-83
2023/03/21 05:25:48;;;;;;;5.90;3.72;;;9.30;99.90;;;;;;6235383;23;20133;-82
2023/03/21 05:28:16;;;;;;;4.27;2.87;;;9.30;99.90;;;;;;6234667;23;20153;-82
2023/03/21 05:30:43;;;;;;;5.30;3.08;;;9.30;99.90;;;;;;6211162;23;20168;-84
2023/03/21 05:33:09;;;;;;;5.75;3.13;;;9.30;99.90;;;;;;6236382;23;20402;-83
2023/03/21 05:35:34;;;;;;;4.80;2.87;;;9.40;99.90;;;;;;6237993;23;20183;-82
2023/03/21 05:38:00;;;;;;;5.87;3.07;;;9.20;99.90;;;;;;6208771;23;20210;-82
2023/03/21 05:40:25;;;;;;;8.53;2.60;;;9.30;99.90;;;;;;6240656;23;20168;-82
2023/03/21 05:42:51;;;;;;;4.67;3.50;;;9.20;99.90;;;;;;6242718;23;20155;-81
2023/03/21 05:45:16;;;;;;;9.00;4.40;;;9.00;99.90;;;;;;6195981;23;20152;-83
2023/03/21 05:47:42;;;;;;;7.73;3.40;;;8.90;99.90;;;;;;6211755;23;20164;-83
2023/03/21 05:50:09;;;;;;;7.70;4.30;;;8.90;99.90;;;;;;6237793;23;20220;-83
2023/03/21 05:52:34;;;;;;;7.45;3.65;;;9.00;99.90;;;;;;6238944;23;20172;-82
2023/03/21 05:55:00;;;;;;;5.90;4.40;;;9.00;99.90;;;;;;6211577;23;20384;-81
2023/03/21 05:57:27;;;;;;;7.60;4.47;;;9.10;99.90;;;;;;6213597;23;20152;-83
2023/03/21 05:59:53;;;;;;;9.93;3.78;;;9.10;99.90;;;;;;6239861;23;20243;-82
2023/03/21 06:02:18;;;;;;;7.83;4.30;;;9.10;99.90;;;;;;6209784;23;20631;-84
2023/03/21 06:04:44;;;;;;;8.93;4.23;;;9.10;99.90;;;;;;6207700;23;20159;-82
2023/03/21 06:07:10;;;;;;;10.23;5.30;;;9.10;99.90;;;;;;6200674;23;20151;-83
2023/03/21 06:09:35;;;;;;;10.27;4.30;;;9.20;99.90;;;;;;6203701;23;20173;-83
2023/03/21 06:12:01;;;;;;;6.90;3.63;;;9.20;99.90;;;;;;6198644;23;20181;-81
2023/03/21 06:14:27;;;;;;;6.27;4.13;;;9.20;99.90;;;;;;6201780;23;20148;-83
2023/03/21 06:16:55;;;;;;;5.10;4.03;;;9.10;99.90;;;;;;6209922;23;20191;-82
2023/03/21 06:19:21;;;;;;;6.75;4.28;;;9.10;99.90;;;;;;6211370;23;20426;-82
2023/03/21 06:21:47;;;;;;;11.47;5.73;;;9.10;99.90;;;;;;6204801;23;20977;-83
2023/03/21 06:24:13;;;;;;;6.72;4.15;;;9.20;99.90;;;;;;6198659;23;20557;-83
2023/03/21 06:26:38;;;;;;;8.63;4.90;;;9.20;99.90;;;;;;6244012;22;20145;-82
2023/03/21 06:29:04;;;;;;;12.43;6.83;;;9.30;99.90;;;;;;6210700;23;20173;-83
2023/03/21 06:31:30;;;;;;;7.03;4.07;;;9.30;99.90;;;;;;6210529;23;20160;-83
2023/03/21 06:33:55;;;;;;;12.47;7.30;;;9.40;99.90;;;;;;6225527;23;20168;-83
2023/03/21 06:36:21;;;;;;;6.63;5.07;;;9.60;99.90;;;;;;6237363;23;20905;-83
2023/03/21 06:38:47;;;;;;;4.30;3.07;;;9.90;99.90;;;;;;6237384;23;20148;-83
2023/03/21 06:41:13;;;;;;;10.63;7.40;;;10.60;99.90;;;;;;6233808;23;20157;-83
2023/03/21 06:43:38;;;;;;;6.83;5.50;;;11.60;99.90;;;;;;6231448;23;20214;-85
2023/03/21 06:46:04;;;;;;;8.00;5.00;;;13.70;99.90;;;;;;6229056;23;20227;-85
2023/03/21 06:48:30;;;;;;;8.37;4.77;;;18.30;99.90;;;;;;6237235;23;20157;-86
2023/03/21 06:50:56;;;;;;;4.53;4.00;;;18.30;99.90;;;;;;6238384;23;20371;-85
2023/03/21 06:53:26;;;;;;;9.20;4.43;;;19.30;99.90;;;;;;6231881;23;20801;-86
2023/03/21 06:55:52;;;;;;;8.57;4.77;;;19.50;99.90;;;;;;6234630;23;20292;-86
2023/03/21 06:58:18;;;;;;;15.73;5.90;;;19.90;99.90;;;;;;6234992;23;20368;-86
2023/03/21 07:00:44;;;;;;;9.30;4.90;;;21.10;99.90;;;;;;6232358;23;20441;-86
2023/03/21 07:03:10;;;;;;;12.43;4.70;;;22.00;98.70;;;;;;6237218;23;20383;-85
2023/03/21 07:05:37;;;;;;;10.07;4.70;;;22.50;95.50;;;;;;6232935;23;20238;-85
2023/03/21 07:08:02;;;;;;;7.57;4.50;;;22.00;93.10;;;;;;6236026;23;20375;-86
2023/03/21 07:10:28;;;;;;;8.40;6.40;;;20.50;94.40;;;;;;6230884;23;20406;-84
2023/03/21 07:12:54;;;;;;;8.43;5.50;;;19.70;96.80;;;;;;6232548;23;20145;-83
2023/03/21 07:15:20;;;;;;;8.53;5.10;;;19.40;97.40;;;;;;6233361;23;20456;-82
2023/03/21 07:17:46;;;;;;;9.20;6.97;;;19.00;97.70;;;;;;6230666;23;20391;-82
2023/03/21 07:20:12;;;;;;;8.03;5.93;;;19.90;98.80;;;;;;6235309;23;20391;-83
2023/03/21 07:22:37;;;;;;;9.00;6.07;;;20.60;97.20;;;;;;6232523;23;20480;-84
2023/03/21 07:25:04;;;;;;;9.90;6.73;;;21.90;97.80;;;;;;6228061;23;20908;-82
2023/03/21 07:27:29;;;;;;;9.37;5.30;;;23.80;94.70;;;;;;6229024;23;20208;-83
2023/03/21 07:29:55;;;;;;;8.60;4.70;;;25.10;90.70;;;;;;6229664;23;20404;-83
2023/03/21 07:32:21;;;;;;;7.80;5.30;;;26.90;85.90;;;;;;6227114;23;20176;-81
2023/03/21 07:34:46;;;;;;;10.93;5.97;;;28.90;78.40;;;;;;6232584;23;20152;-83
2023/03/21 07:37:12;;;;;;;9.03;5.07;;;28.70;66.10;;;;;;6232848;23;20160;-84
2023/03/21 07:39:37;;;;;;;10.47;7.20;;;30.30;63.20;;;;;;6207048;23;20546;-83
2023/03/21 07:42:03;;;;;;;15.20;6.20;;;;;;;;;;6236889;23;20168;-82
2023/03/21 07:44:29;;;;;;;7.87;6.43;;;27.40;58.50;;;;;;6206172;23;20249;-83
2023/03/21 07:46:55;;;;;;;9.23;6.90;;;27.00;59.20;;;;;;6235299;23;20734;-83
2023/03/21 07:49:21;;;;;;;12.00;6.63;;;26.00;61.80;;;;;;6230336;23;20394;-83
2023/03/21 07:51:46;;;;;;;5.40;5.00;;;26.00;62.80;;;;;;6204264;23;20370;-84
2023/03/21 07:54:12;;;;;;;7.17;6.07;;;27.10;61.50;;;;;;6234734;23;20146;-84
2023/03/21 07:56:38;;;;;;;5.97;5.37;;;27.10;60.90;;;;;;6230772;23;20165;-84
2023/03/21 07:59:04;;;;;;;6.93;5.40;;;25.60;60.30;;;;;;6228787;23;20171;-84
2023/03/21 08:01:30;;;;;;;6.50;5.50;;;25.10;62.30;;;;;;6203413;23;20149;-84
2023/03/21 08:03:55;;;;;;;6.70;5.40;;;25.10;64.80;;;;;;6230393;23;20554;-84
2023/03/21 08:06:22;;;;;;;8.73;4.73;;;25.90;63.10;;;;;;6213417;23;20160;-84
2023/03/21 08:08:47;;;;;;;6.40;5.20;;;27.40;59.90;;;;;;6208969;23;20187;-84
2023/03/21 08:11:13;;;;;;;7.97;6.00;;;28.90;59.10;;;;;;6205470;23;20388;-84
2023/03/21 08:13:39;;;;;;;5.80;5.23;;;29.40;56.60;;;;;;6209885;23;20148;-82
2023/03/21 08:16:07;;;;;;;7.20;6.50;;;29.70;55.70;;;;;;6239044;23;20587;-83
2023/03/21 08:18:32;;;;;;;7.17;5.23;;;29.20;48.70;;;;;;6234300;23;20370;-83
2023/03/21 08:20:58;;;;;;;4.00;3.63;;;29.20;48.80;;;;;;6233441;23;20735;-82
2023/03/21 08:23:24;;;;;;;3.83;3.53;;;26.50;48.70;;;;;;6193298;23;20620;-83
2023/03/21 08:25:51;;;;;;;7.47;5.90;;;25.20;49.70;;;;;;6225877;23;20136;-84
2023/03/21 08:28:18;;;;;;;11.20;5.83;;;25.20;50.60;;;;;;6192360;23;20383;-83
2023/03/21 08:30:44;;;;;;;11.60;6.30;;;23.90;49.60;;;;;;6222905;23;21056;-84
2023/03/21 08:33:09;;;;;;;3.70;2.20;;;23.30;51.40;;;;;;6202530;23;20449;-83
2023/03/21 08:35:35;;;;;;;6.63;4.33;;;21.90;53.40;;;;;;6220646;23;20200;-82
2023/03/21 08:38:04;;;;;;;8.93;4.23;;;21.00;52.70;;;;;;6236383;23;20148;-84
2023/03/21 08:40:30;;;;;;;6.40;4.30;;;20.70;52.90;;;;;;6234568;23;20981;-84
2023/03/21 08:42:56;;;;;;;4.13;2.40;;;21.30;54.70;;;;;;6235381;23;20407;-82
2023/03/21 08:45:23;;;;;;;7.67;3.07;;;21.60;54.40;;;;;;6232726;23;20697;-85
2023/03/21 08:47:49;;;;;;;8.93;3.70;;;21.00;54.70;;;;;;6236826;23;20414;-83
2023/03/21 08:50:18;;;;;;;5.70;3.30;;;21.40;55.90;;;;;;6234126;23;20407;-85
2023/03/21 08:52:44;;;;;;;6.70;4.70;;;21.40;56.00;;;;;;6230970;23;20398;-85
2023/03/21 08:55:11;;;;;;;5.50;2.33;;;21.90;55.10;;;;;;6234383;23;20521;-83
2023/03/21 08:57:36;;;;;;;2.67;2.00;;;22.20;56.90;;;;;;6235286;23;20360;-83
2023/03/21 09:00:11;;;;;;;3.23;2.03;;;22.30;54.80;;;;;;6235870;23;20395;-85
2023/03/21 09:02:36;;;;;;;6.17;3.03;;;22.60;56.40;;;;;;6236751;23;20150;-82
2023/03/21 09:05:04;;;;;;;5.63;2.30;;;21.80;55.90;;;;;;6234789;23;20403;-84
2023/03/21 09:07:32;;;;;;;5.60;3.87;;;21.20;55.30;;;;;;6232009;23;20164;-85
2023/03/21 09:09:59;;;;;;;10.57;4.87;;;22.00;56.40;;;;;;6236981;23;20407;-84
2023/03/21 09:12:24;;;;;;;5.90;3.60;;;21.00;53.30;;;;;;6236054;23;20387;-84
2023/03/21 09:14:52;;;;;;;10.07;4.50;;;20.70;54.30;;;;;;6233814;23;20386;-84
2023/03/21 09:17:18;;;;;;;4.20;2.37;;;19.60;57.00;;;;;;6239850;23;20148;-83
2023/03/21 09:19:45;;;;;;;5.40;3.20;;;19.70;57.90;;;;;;6239875;23;20403;-83
2023/03/21 09:22:13;;;;;;;10.70;2.80;;;20.20;58.40;;;;;;6234076;23;20378;-84
2023/03/21 09:24:40;;;;;;;4.97;1.83;;;20.80;57.20;;;;;;6235004;23;20383;-84
2023/03/21 09:27:06;;;;;;;4.07;1.70;;;19.80;54.70;;;;;;6235301;23;20376;-84
2023/03/21 09:29:32;;;;;;;2.83;2.00;;;20.10;56.90;;;;;;6234308;23;20864;-83
2023/03/21 09:31:58;;;;;;;4.20;1.60;;;19.70;58.00;;;;;;6234353;23;20560;-83
2023/03/21 09:34:25;;;;;;;3.53;2.13;;;19.60;57.10;;;;;;6236119;23;20402;-83
2023/03/21 09:36:55;;;;;;;4.07;2.80;;;19.90;56.60;;;;;;6234694;23;20411;-82
2023/03/21 09:39:22;;;;;;;3.10;1.47;;;19.40;57.60;;;;;;6236480;23;20445;-83
2023/03/21 09:41:59;;;;;;;5.10;3.40;;;19.90;56.60;;;;;;6232731;23;20403;-82
2023/03/21 09:44:43;;;;;;;9.80;1.90;;;19.30;59.70;;;;;;6246597;23;20332;-83
2023/03/21 09:47:27;;;;;;;10.07;1.87;;;19.20;59.00;;;;;;6234006;23;20356;-84
2023/03/21 09:50:30;;;;;;;3.63;2.50;;;18.70;61.10;;;;;;6232303;23;20399;-83
2023/03/21 09:53:04;;;;;;;7.00;1.60;;;18.50;60.10;;;;;;6111580;23;20445;-84
2023/03/21 09:55:33;;;;;;;3.70;1.50;;;18.00;66.00;;;;;;6190677;23;20423;-85
2023/03/21 09:58:04;;;;;;;3.50;1.70;;;18.10;66.50;;;;;;6231270;23;20644;-84
2023/03/21 10:00:36;;;;;;;4.10;1.57;;;18.60;65.30;;;;;;6234137;23;20387;-85
2023/03/21 10:03:06;;;;;;;3.43;1.80;;;19.30;62.50;;;;;;6232647;23;20364;-85
2023/03/21 10:05:33;;;;;;;3.60;1.50;;;20.00;61.90;;;;;;6204040;23;20433;-85
2023/03/21 10:08:15;;;;;;;7.60;1.77;;;20.00;63.10;;;;;;6229510;23;20382;-84
2023/03/21 10:11:09;;;;;;;2.97;2.40;;;19.70;62.70;;;;;;6226023;23;20399;-84
2023/03/21 10:13:48;;;;;;;3.17;1.77;;;19.40;65.80;;;;;;6192812;23;20405;-85
2023/03/21 10:16:29;;;;;;;2.20;1.67;;;19.30;64.20;;;;;;6232442;23;20970;-84
2023/03/21 10:18:56;;;;;;;9.07;1.80;;;19.70;60.90;;;;;;6205496;23;20452;-85
2023/03/21 10:21:24;;;;;;;3.27;1.50;;;19.60;63.90;;;;;;6236339;23;20446;-85
2023/03/21 10:23:52;;;;;;;4.73;2.37;;;18.80;66.90;;;;;;6209136;23;20382;-85
2023/03/21 10:26:20;;;;;;;3.63;1.97;;;19.10;64.90;;;;;;6210654;23;21153;-85
2023/03/21 10:28:47;;;;;;;3.20;2.00;;;18.90;68.30;;;;;;6211430;23;20402;-84
2023/03/21 10:31:20;;;;;;;3.10;1.83;;;19.00;65.50;;;;;;6246856;22;20475;-84
2023/03/21 10:33:48;;;;;;;4.33;2.10;;;19.50;63.20;;;;;;6235121;23;20387;-84
2023/03/21 10:36:21;;;;;;;5.00;2.20;;;19.50;64.00;;;;;;6209534;23;20736;-84
2023/03/21 10:38:50;;;;;;;4.00;2.33;;;18.90;65.80;;;;;;6224160;23;20582;-84
2023/03/21 10:41:16;;;;;;;6.57;1.87;;;19.20;67.30;;;;;;6208628;23;20462;-85
2023/03/21 10:43:44;;;;;;;2.53;2.20;;;18.90;66.70;;;;;;6209279;23;20888;-85
2023/03/21 10:46:16;;;;;;;4.47;1.70;;;19.00;69.10;;;;;;6234433;23;20159;-85
2023/03/21 10:48:45;;;;;;;2.30;1.67;;;19.40;67.70;;;;;;6237215;23;20457;-84
2023/03/21 10:51:16;;;;;;;2.93;1.57;;;19.50;66.70;;;;;;6237797;23;20472;-85
2023/03/21 10:53:50;;;;;;;2.73;2.30;;;18.90;67.50;;;;;;6233673;23;20362;-84
2023/03/21 10:56:16;;;;;;;5.00;2.00;;;18.40;70.20;;;;;;6203611;23;20415;-84
2023/03/21 10:58:45;;;;;;;4.17;2.50;;;18.50;68.10;;;;;;6208929;23;20379;-85
2023/03/21 11:01:20;;;;;;;4.00;2.20;;;18.80;69.90;;;;;;6208928;23;20387;-84
2023/03/21 11:03:47;;;;;;;4.13;2.40;;;18.50;66.60;;;;;;6235022;23;20479;-84
2023/03/21 11:06:25;;;;;;;5.40;2.00;;;18.50;68.00;;;;;;6205183;23;20387;-84
2023/03/21 11:08:59;;;;;;;3.00;1.90;;;18.30;68.40;;;;;;6236204;23;20394;-84
2023/03/21 11:11:31;;;;;;;4.23;2.00;;;18.30;69.90;;;;;;6213843;23;20376;-84
2023/03/21 11:14:05;;;;;;;3.30;2.17;;;18.50;68.70;;;;;;6213578;23;20861;-85
2023/03/21 11:16:40;;;;;;;6.60;2.37;;;18.70;69.60;;;;;;6210910;23;20503;-85
2023/03/21 11:19:28;;;;;;;3.63;1.87;;;18.90;71.10;;;;;;6211118;23;20449;-85
2023/03/21 11:21:57;;;;;;;8.60;2.33;;;19.30;70.10;;;;;;6208596;23;20398;-84
2023/03/21 11:24:26;;;;;;;3.33;2.03;;;19.20;68.00;;;;;;6209463;23;20465;-87
2023/03/21 11:26:55;;;;;;;1.57;1.47;;;18.70;68.40;;;;;;6235767;23;20391;-85
2023/03/21 11:29:54;;;;;;;5.27;2.50;;;18.50;68.10;;;;;;6209645;23;20906;-84
2023/03/21 11:32:34;;;;;;;3.30;1.80;;;18.50;68.50;;;;;;6146400;23;20811;-85
2023/03/21 11:35:05;;;;;;;2.13;1.93;;;18.70;68.30;;;;;;6237161;23;20363;-84
2023/03/21 11:37:36;;;;;;;3.60;2.33;;;18.70;71.40;;;;;;6237493;23;20360;-84
2023/03/21 11:40:24;;;;;;;3.77;2.30;;;18.80;70.50;;;;;;6237947;23;20387;-84
2023/03/21 11:43:02;;;;;;;4.17;2.50;;;17.90;72.60;;;;;;6220248;23;20418;-84
2023/03/21 11:45:35;;;;;;;3.50;2.13;;;17.50;76.00;;;;;;6210034;23;21212;-84
2023/03/21 11:48:10;;;;;;;4.50;2.40;;;17.40;73.30;;;;;;6235164;23;20389;-84
2023/03/21 11:50:43;;;;;;;6.93;3.00;;;17.30;76.20;;;;;;6202203;23;20466;-85
2023/03/21 11:53:38;;;;;;;6.63;3.30;;;17.10;77.70;;;;;;6234829;23;20417;-85
2023/03/21 11:56:15;;;;;;;4.93;2.50;;;17.20;77.50;;;;;;6208647;23;20521;-85
2023/03/21 11:59:06;;;;;;;3.63;2.60;;;17.10;78.50;;;;;;6205341;23;20768;-84
2023/03/21 12:01:41;;;;;;;9.77;2.80;;;16.70;82.80;;;;;;6206827;23;20402;-83
2023/03/21 12:04:40;;;;;;;4.73;2.80;;;16.40;83.30;;;;;;6208195;23;20857;-85
2023/03/21 12:07:15;;;;;;;5.43;3.20;;;16.30;83.80;;;;;;6199404;23;20429;-84
2023/03/21 12:09:51;;;;;;;7.10;3.10;;;16.10;85.00;;;;;;6233143;23;20387;-82
2023/03/21 12:12:46;;;;;;;5.10;2.70;;;16.10;88.50;;;;;;6207494;23;20454;-83
2023/03/21 12:15:35;;;;;;;3.83;2.83;;;15.90;87.70;;;;;;6202097;23;20446;-82
2023/03/21 12:18:26;;;;;;;4.37;3.20;;;15.80;88.90;;;;;;6233066;23;20746;-83
2023/03/21 12:20:55;;;;;;;5.33;3.20;;;16.10;90.00;;;;;;6208487;23;21169;-83
2023/03/21 12:23:44;;;;;;;5.10;2.73;;;16.10;88.20;;;;;;6222163;23;20454;-83
2023/03/21 12:26:16;;;;;;;10.50;3.53;;;15.90;90.20;;;;;;6205728;23;20374;-83
2023/03/21 12:29:08;;;;;;;5.77;3.27;;;15.70;90.50;;;;;;6229350;23;20425;-83
2023/03/21 12:32:00;;;;;;;5.70;3.30;;;15.50;90.70;;;;;;6231628;23;20533;-84
2023/03/21 12:34:34;;;;;;;5.23;2.90;;;15.60;91.70;;;;;;6226541;23;20845;-82
2023/03/21 12:37:31;;;;;;;4.70;3.10;;;15.50;91.30;;;;;;6230059;23;20488;-84
2023/03/21 12:40:21;;;;;;;4.83;2.90;;;15.40;91.20;;;;;;6230385;23;20387;-82
2023/03/21 12:43:11;;;;;;;6.33;3.13;;;15.50;92.10;;;;;;6246612;23;20401;-82
2023/03/21 12:45:41;;;;;;;5.40;2.60;;;15.90;92.80;;;;;;6232686;23;20352;-83
2023/03/21 12:48:23;;;;;;;5.30;3.53;;;16.40;92.50;;;;;;6238499;23;20413;-83
2023/03/21 12:50:53;;;;;;;4.93;3.13;;;16.80;93.80;;;;;;6238552;23;21018;-84
2023/03/21 12:53:30;;;;;;;4.67;2.93;;;16.90;92.60;;;;;;6249980;23;20383;-83
2023/03/21 12:56:00;;;;;;;6.20;3.73;;;17.00;92.30;;;;;;6239640;23;20414;-83
2023/03/21 12:58:27;;;;;;;7.67;3.27;;;17.00;90.50;;;;;;6244596;23;20362;-82
2023/03/21 13:01:00;;;;;;;5.07;3.20;;;17.10;89.10;;;;;;6244284;23;20408;-83
2023/03/21 13:03:35;;;;;;;4.13;2.87;;;17.40;90.80;;;;;;6246220;23;20862;-83
2023/03/21 13:06:05;;;;;;;7.30;3.77;;;17.30;89.60;;;;;;6247485;23;20375;-82